Pattaya, Thailand
Current Conditions -  °F | °C
As of 12:30 AM on Sunday 21 Dec 2014 (Local Time) from VTBU Reporting Station
Haze Haze  
Wind Chill: 73°   Ceiling: Unl
Heat Index: 73°   Visibility: 2.5mi
Dew Point: 63°   Wind: 5mph
Humidity: 69%   Direction: 320°NW
Pressure: 29.88"   Gusts: NA
Location:  12.92°N, 100.9°E
Report Text: VTBU 201730Z 32004KT 4000 BR NSC 23/17 Q1012 A2990
Loading
Personal Weather Stations






























Interactive Weather Map New forecast layout! Learn more

10-Day Weather Forecast

Advertisements
Track Severe Weather on mobile